Terminal Aerodrome Forecast
Issued by NWS

Home | Current Version | Previous Version | Graphics & Text | Print | Product List | Glossary On
Versions: 1 2 3 4 5 6 7 8 9 10 11 12 13 14 15 16 17 18 19 20 21 22 23 24 25 26 27 28 29 30 31 32 33 34 35 36 37 38 39
000
FTUS43 KGRB 220034 AAA
TAFRHI
TAF AMD
KRHI 220034Z 2201/2224 14006KT P6SM SCT025
     FM220300 VRB03KT P6SM BKN025
     FM221000 VRB03KT 3SM BR OVC012
     FM221300 VRB03KT P6SM BKN006
     FM221400 34003KT P6SM BKN012
     FM221500 30004KT P6SM SCT060=

USA.gov is the U.S. government's official web portal to all federal, state and local government web resources and services.